createdAt,value
2019-05-22T00:00:24.448Z,17.32
2019-05-22T00:02:53.163Z,16.95
2019-05-22T00:05:23.456Z,17.02
2019-05-22T00:07:51.947Z,17.27
2019-05-22T00:10:27.198Z,16.52
2019-05-22T00:12:57.594Z,17.47
2019-05-22T00:15:26.055Z,17.10
2019-05-22T00:17:54.595Z,18.50
2019-05-22T00:20:25.698Z,16.87
2019-05-22T00:22:54.968Z,16.57
2019-05-22T00:25:29.218Z,16.80
2019-05-22T00:27:59.630Z,16.67
2019-05-22T00:30:32.043Z,17.02
2019-05-22T00:33:00.977Z,17.12
2019-05-22T00:35:31.496Z,17.10
2019-05-22T00:38:01.658Z,16.97
2019-05-22T00:40:31.952Z,17.27
2019-05-22T00:43:06.708Z,16.50
2019-05-22T00:45:31.206Z,17.07
2019-05-22T00:48:00.297Z,17.25
2019-05-22T00:50:33.534Z,17.98
2019-05-22T00:53:22.365Z,17.42
2019-05-22T00:55:52.787Z,19.30
2019-05-22T00:58:26.684Z,18.05
2019-05-22T01:00:58.001Z,18.52
2019-05-22T01:03:26.700Z,18.82
2019-05-22T01:05:57.887Z,18.37
2019-05-22T01:08:28.095Z,17.65
2019-05-22T01:10:57.767Z,18.73
2019-05-22T01:13:30.878Z,18.57
2019-05-22T01:15:59.814Z,17.95
2019-05-22T01:18:28.643Z,18.23
2019-05-22T01:20:59.496Z,18.67
2019-05-22T01:23:30.309Z,19.45
2019-05-22T01:26:01.243Z,18.12
2019-05-22T01:28:31.980Z,18.30
2019-05-22T01:31:02.705Z,17.65
2019-05-22T01:33:33.004Z,18.17
2019-05-22T01:36:03.170Z,18.60
2019-05-22T01:38:33.505Z,18.15
2019-05-22T01:41:12.557Z,17.52
2019-05-22T01:43:44.713Z,17.42
2019-05-22T01:46:14.984Z,17.90
2019-05-22T01:48:45.267Z,18.87
2019-05-22T01:51:15.916Z,18.12
2019-05-22T01:53:44.447Z,19.05
2019-05-22T01:56:13.510Z,18.30
2019-05-22T01:58:42.894Z,19.62
2019-05-22T02:01:14.408Z,18.62
2019-05-22T02:03:44.796Z,17.98
2019-05-22T02:06:14.923Z,18.57
2019-05-22T02:08:47.825Z,17.45
2019-05-22T02:11:19.560Z,18.00
2019-05-22T02:13:59.886Z,17.45
2019-05-22T02:16:32.459Z,17.25
2019-05-22T02:19:02.823Z,16.97
2019-05-22T02:21:32.692Z,18.15
2019-05-22T02:24:01.780Z,17.65
2019-05-22T02:26:30.973Z,17.17
2019-05-22T02:29:01.341Z,16.57
2019-05-22T02:31:30.898Z,16.45
2019-05-22T02:34:02.842Z,17.57
2019-05-22T02:36:34.056Z,16.42
2019-05-22T02:39:05.142Z,16.82
2019-05-22T02:41:40.694Z,17.23
2019-05-22T02:44:09.172Z,16.77
2019-05-22T02:46:38.040Z,16.05
2019-05-22T02:49:07.261Z,16.25
2019-05-22T02:51:36.452Z,16.52
2019-05-22T02:54:07.056Z,16.93
2019-05-22T02:56:36.533Z,15.53
2019-05-22T02:59:08.945Z,15.98
2019-05-22T03:01:37.857Z,15.95
2019-05-22T03:04:08.396Z,15.65
2019-05-22T03:06:38.669Z,15.72
2019-05-22T03:09:11.958Z,15.20
2019-05-22T03:11:43.756Z,16.67
2019-05-22T03:14:13.678Z,16.02
2019-05-22T03:16:54.400Z,16.30
2019-05-22T03:19:39.169Z,17.27
2019-05-22T03:22:31.611Z,15.88
2019-05-22T03:25:02.215Z,16.15
2019-05-22T03:27:39.884Z,16.57
2019-05-22T03:30:14.374Z,16.52
2019-05-22T03:32:44.394Z,15.55
2019-05-22T03:35:14.081Z,16.00
2019-05-22T03:37:43.059Z,16.05
2019-05-22T03:40:13.167Z,16.07
2019-05-22T03:42:42.731Z,14.98
2019-05-22T03:45:11.942Z,16.45
2019-05-22T03:47:41.907Z,16.45
2019-05-22T03:50:11.855Z,15.43
2019-05-22T03:52:40.646Z,15.32
2019-05-22T03:55:11.825Z,15.93
2019-05-22T03:57:41.326Z,17.05
2019-05-22T04:00:19.582Z,15.55
2019-05-22T04:02:51.254Z,15.68
2019-05-22T04:05:21.005Z,16.10
2019-05-22T04:07:51.007Z,16.12
2019-05-22T04:10:19.482Z,16.65
2019-05-22T04:12:50.135Z,16.23
2019-05-22T04:15:20.212Z,16.42
2019-05-22T04:17:48.744Z,15.53
2019-05-22T04:20:19.814Z,14.93
2019-05-22T04:22:50.898Z,16.25
2019-05-22T04:25:19.525Z,15.38
2019-05-22T04:27:48.437Z,14.78
2019-05-22T04:30:18.488Z,15.85
2019-05-22T04:32:48.632Z,15.43
2019-05-22T04:35:19.405Z,16.45
2019-05-22T04:37:49.618Z,15.40
2019-05-22T04:40:27.206Z,15.75
2019-05-22T04:42:58.712Z,15.45
2019-05-22T04:45:47.414Z,15.70
2019-05-22T04:48:17.097Z,15.43
2019-05-22T04:50:46.492Z,15.23
2019-05-22T04:53:16.079Z,15.30
2019-05-22T04:55:45.505Z,15.45
2019-05-22T04:58:19.416Z,15.25
2019-05-22T05:00:47.871Z,15.58
2019-05-22T05:03:19.196Z,15.78
2019-05-22T05:05:54.085Z,15.00
2019-05-22T05:08:24.062Z,15.72
2019-05-22T05:10:53.590Z,15.58
2019-05-22T05:13:22.048Z,15.30
2019-05-22T05:15:50.583Z,16.55
2019-05-22T05:18:19.160Z,16.52
2019-05-22T05:20:47.923Z,16.10
2019-05-22T05:23:16.722Z,16.93
2019-05-22T05:25:45.364Z,16.23
2019-05-22T05:28:15.335Z,16.60
2019-05-22T05:30:44.105Z,15.98
2019-05-22T05:33:12.987Z,17.82
2019-05-22T05:35:42.300Z,17.55
2019-05-22T05:38:11.764Z,16.25
2019-05-22T05:40:42.606Z,16.55
2019-05-22T05:43:13.129Z,17.40
2019-05-22T05:45:43.321Z,17.67
2019-05-22T05:48:14.051Z,17.77
2019-05-22T05:51:02.346Z,15.93
2019-05-22T05:53:33.957Z,17.65
2019-05-22T05:56:14.321Z,17.05
2019-05-22T05:58:43.532Z,17.32
2019-05-22T06:01:19.313Z,17.62
2019-05-22T06:03:47.942Z,17.35
2019-05-22T06:06:25.991Z,17.35
2019-05-22T06:08:56.623Z,16.80
2019-05-22T06:11:34.406Z,15.88
2019-05-22T06:14:05.526Z,16.70
2019-05-22T06:16:53.751Z,17.25
2019-05-22T06:19:23.927Z,17.12
2019-05-22T06:21:54.016Z,16.90
2019-05-22T06:24:36.202Z,17.07
2019-05-22T06:27:09.430Z,16.50
2019-05-22T06:29:52.984Z,16.60
2019-05-22T06:32:30.591Z,15.10
2019-05-22T06:34:59.881Z,16.27
2019-05-22T06:37:37.199Z,16.12
2019-05-22T06:40:09.134Z,16.20
2019-05-22T06:42:40.597Z,15.90
2019-05-22T06:45:09.585Z,15.83
2019-05-22T06:47:38.151Z,16.40
2019-05-22T06:50:07.721Z,14.95
2019-05-22T06:52:36.245Z,15.43
2019-05-22T06:55:06.288Z,15.72
2019-05-22T06:57:34.926Z,15.23
2019-05-22T07:00:13.862Z,14.98
2019-05-22T07:02:37.510Z,15.88
2019-05-22T07:05:07.067Z,16.42
2019-05-22T07:07:36.049Z,16.37
2019-05-22T07:10:06.639Z,15.35
2019-05-22T07:12:35.946Z,15.15
2019-05-22T07:15:08.540Z,16.45
2019-05-22T07:17:37.861Z,16.67
2019-05-22T07:20:08.102Z,17.55
2019-05-22T07:22:37.068Z,16.05
2019-05-22T07:25:09.503Z,15.60
2019-05-22T07:27:38.826Z,15.58
2019-05-22T07:30:09.221Z,16.40
2019-05-22T07:32:38.099Z,16.80
2019-05-22T07:35:08.384Z,16.60
2019-05-22T07:37:45.232Z,16.05
2019-05-22T07:40:15.297Z,15.30
2019-05-22T07:42:44.598Z,14.78
2019-05-22T07:45:14.907Z,15.20
2019-05-22T07:47:43.452Z,15.48
2019-05-22T07:50:13.187Z,16.52
2019-05-22T07:52:42.726Z,15.88
2019-05-22T07:55:11.933Z,16.67
2019-05-22T07:57:43.068Z,15.98
2019-05-22T08:00:12.585Z,15.78
2019-05-22T08:02:43.555Z,15.32
2019-05-22T08:05:12.740Z,14.60
2019-05-22T08:07:42.039Z,14.38
2019-05-22T08:10:14.035Z,14.80
2019-05-22T08:12:44.053Z,14.30
2019-05-22T08:15:14.376Z,13.93
2019-05-22T08:17:43.176Z,15.00
2019-05-22T08:20:12.581Z,13.58
2019-05-22T08:22:41.536Z,13.70
2019-05-22T08:25:11.604Z,14.75
2019-05-22T08:27:41.364Z,13.08
2019-05-22T08:30:10.414Z,12.33
2019-05-22T08:32:39.546Z,14.10
2019-05-22T08:35:10.697Z,13.93
2019-05-22T08:37:40.928Z,12.80
2019-05-22T08:40:12.602Z,13.20
2019-05-22T08:42:41.974Z,12.03
2019-05-22T08:45:12.981Z,13.30
2019-05-22T08:47:41.878Z,12.33
2019-05-22T08:50:15.940Z,12.60
2019-05-22T08:52:44.949Z,12.40
2019-05-22T08:55:14.721Z,12.43
2019-05-22T08:57:44.770Z,11.63
2019-05-22T09:00:15.963Z,12.73
2019-05-22T09:02:44.773Z,13.38
2019-05-22T09:05:14.036Z,12.65
2019-05-22T09:07:43.788Z,12.53
2019-05-22T09:10:14.527Z,11.95
2019-05-22T09:12:43.124Z,11.53
2019-05-22T09:15:12.267Z,10.35
2019-05-22T09:17:40.865Z,11.12
2019-05-22T09:20:10.295Z,10.58
2019-05-22T09:22:41.133Z,11.33
2019-05-22T09:25:12.705Z,10.48
2019-05-22T09:27:42.730Z,10.48
2019-05-22T09:30:11.738Z,10.72
2019-05-22T09:32:40.273Z,11.08
2019-05-22T09:35:09.427Z,9.65
2019-05-22T09:37:38.308Z,11.30
2019-05-22T09:40:07.221Z,11.15
2019-05-22T09:42:37.124Z,10.70
2019-05-22T09:45:09.735Z,10.60
2019-05-22T09:47:39.985Z,12.05
2019-05-22T09:50:12.286Z,12.30
2019-05-22T09:52:56.212Z,11.40
2019-05-22T09:55:13.674Z,12.05
2019-05-22T09:57:42.523Z,10.80
2019-05-22T10:00:13.477Z,10.88
2019-05-22T10:02:42.948Z,10.65
2019-05-22T10:05:14.002Z,10.58
2019-05-22T10:07:57.557Z,11.73
2019-05-22T10:10:14.843Z,9.45
2019-05-22T10:12:45.402Z,9.90
2019-05-22T10:15:14.422Z,9.63
2019-05-22T10:17:49.253Z,9.55
2019-05-22T10:20:18.729Z,10.15
2019-05-22T10:22:47.270Z,9.65
2019-05-22T10:25:17.329Z,9.70
2019-05-22T10:27:47.721Z,9.70
2019-05-22T10:30:22.503Z,10.05
2019-05-22T10:32:51.205Z,8.38
2019-05-22T10:35:23.349Z,10.05
2019-05-22T10:37:53.674Z,10.00
2019-05-22T10:40:23.769Z,9.83
2019-05-22T10:42:52.662Z,10.53
2019-05-22T10:45:21.524Z,9.30
2019-05-22T10:47:50.153Z,9.63
2019-05-22T10:50:19.621Z,10.60
2019-05-22T10:52:53.917Z,10.68
2019-05-22T10:55:21.281Z,9.80
2019-05-22T10:57:50.028Z,11.38
2019-05-22T11:00:20.938Z,11.30
2019-05-22T11:02:49.712Z,11.08
2019-05-22T11:05:20.814Z,10.88
2019-05-22T11:07:50.514Z,10.50
2019-05-22T11:10:21.968Z,10.85
2019-05-22T11:12:51.229Z,10.25
2019-05-22T11:15:21.153Z,11.60
2019-05-22T11:17:49.898Z,11.45
2019-05-22T11:20:19.073Z,10.65
2019-05-22T11:22:48.476Z,10.10
2019-05-22T11:25:18.140Z,11.25
2019-05-22T11:27:47.004Z,11.68
2019-05-22T11:30:17.209Z,11.75
2019-05-22T11:32:45.957Z,10.78
2019-05-22T11:35:15.681Z,10.40
2019-05-22T11:37:44.622Z,9.48
2019-05-22T11:40:15.424Z,9.18
2019-05-22T11:42:43.890Z,7.83
2019-05-22T11:45:15.189Z,9.55
2019-05-22T11:47:44.340Z,8.20
2019-05-22T11:50:13.328Z,8.23
2019-05-22T11:52:42.549Z,8.13
2019-05-22T11:55:12.967Z,9.38
2019-05-22T11:57:43.651Z,8.58
2019-05-22T12:00:13.387Z,6.65
2019-05-22T12:02:41.934Z,7.25
2019-05-22T12:05:12.609Z,6.87
2019-05-22T12:07:41.904Z,7.08
2019-05-22T12:10:12.366Z,7.33
2019-05-22T12:12:41.538Z,7.25
2019-05-22T12:15:12.461Z,6.47
2019-05-22T12:17:41.523Z,5.70
2019-05-22T12:20:11.789Z,5.70
2019-05-22T12:22:41.340Z,5.47
2019-05-22T12:25:12.211Z,5.90
2019-05-22T12:27:41.677Z,5.70
2019-05-22T12:30:12.679Z,5.45
2019-05-22T12:32:41.906Z,4.90
2019-05-22T12:35:13.725Z,5.03
2019-05-22T12:37:43.017Z,4.70
2019-05-22T12:40:14.244Z,5.08
2019-05-22T12:42:44.451Z,5.00
2019-05-22T12:45:14.398Z,4.53
2019-05-22T12:47:43.577Z,5.33
2019-05-22T12:50:15.388Z,5.37
2019-05-22T12:52:47.045Z,5.20
2019-05-22T12:55:17.017Z,5.67
2019-05-22T12:57:45.985Z,4.95
2019-05-22T13:00:15.775Z,5.20
2019-05-22T13:02:44.601Z,5.45
2019-05-22T13:05:14.434Z,6.42
2019-05-22T13:07:43.923Z,6.12
2019-05-22T13:10:13.013Z,5.40
2019-05-22T13:12:41.662Z,5.05
2019-05-22T13:15:11.068Z,5.03
2019-05-22T13:17:41.397Z,5.08
2019-05-22T13:20:12.559Z,6.78
2019-05-22T13:22:47.768Z,6.75
2019-05-22T13:25:19.691Z,6.10
2019-05-22T13:27:49.065Z,7.00
2019-05-22T13:30:19.754Z,7.33
2019-05-22T13:32:49.409Z,7.42
2019-05-22T13:35:19.129Z,7.78
2019-05-22T13:37:48.741Z,6.28
2019-05-22T13:40:27.787Z,7.83
2019-05-22T13:42:49.228Z,6.65
2019-05-22T13:45:28.463Z,7.50
2019-05-22T13:47:48.616Z,8.95
2019-05-22T13:50:18.777Z,9.58
2019-05-22T13:52:47.595Z,9.88
2019-05-22T13:55:17.899Z,9.13
2019-05-22T13:57:48.756Z,9.90
2019-05-22T14:00:20.128Z,7.85
2019-05-22T14:02:48.966Z,9.90
2019-05-22T14:05:18.256Z,9.93
2019-05-22T14:07:46.980Z,9.00
2019-05-22T14:10:16.979Z,9.35
2019-05-22T14:12:45.584Z,8.68
2019-05-22T14:15:15.843Z,8.45
2019-05-22T14:17:44.302Z,7.80
2019-05-22T14:20:14.454Z,8.38
2019-05-22T14:22:43.079Z,8.20
2019-05-22T14:25:13.832Z,7.55
2019-05-22T14:27:42.289Z,6.95
2019-05-22T14:30:13.113Z,5.97
2019-05-22T14:32:41.957Z,4.62
2019-05-22T14:35:11.266Z,3.62
2019-05-22T14:37:41.186Z,3.20
2019-05-22T14:40:11.854Z,2.62
2019-05-22T14:42:40.640Z,2.75
2019-05-22T14:45:09.565Z,2.25
2019-05-22T14:47:38.464Z,1.77
2019-05-22T14:50:08.728Z,1.67
2019-05-22T14:52:37.365Z,1.10
2019-05-22T14:55:07.171Z,1.50
2019-05-22T14:57:36.506Z,1.30
2019-05-22T15:00:10.268Z,1.27
2019-05-22T15:02:39.163Z,1.10
2019-05-22T15:05:08.659Z,0.75
2019-05-22T15:07:37.495Z,1.00
2019-05-22T15:10:08.354Z,0.90
2019-05-22T15:12:37.219Z,0.90
2019-05-22T15:15:06.711Z,0.95
2019-05-22T15:17:35.247Z,1.35
2019-05-22T15:20:05.831Z,1.27
2019-05-22T15:22:35.724Z,1.00
2019-05-22T15:25:06.868Z,1.15
2019-05-22T15:27:35.858Z,1.35
2019-05-22T15:30:06.783Z,1.27
2019-05-22T15:32:35.424Z,1.27
2019-05-22T15:35:04.897Z,1.30
2019-05-22T15:37:34.503Z,1.50
2019-05-22T15:40:04.386Z,1.60
2019-05-22T15:42:41.751Z,1.77
2019-05-22T15:45:16.003Z,1.45
2019-05-22T15:47:54.826Z,1.60
2019-05-22T15:50:19.496Z,1.87
2019-05-22T15:52:51.441Z,1.77
2019-05-22T15:55:21.162Z,2.08
2019-05-22T15:57:50.445Z,2.00
2019-05-22T16:00:22.233Z,1.70
2019-05-22T16:02:51.124Z,1.50
2019-05-22T16:05:22.224Z,1.72
2019-05-22T16:07:52.884Z,1.70
2019-05-22T16:10:23.206Z,2.10
2019-05-22T16:12:52.981Z,2.25
2019-05-22T16:15:25.297Z,2.10
2019-05-22T16:18:10.331Z,2.17
2019-05-22T16:20:27.269Z,1.72
2019-05-22T16:22:56.965Z,1.40
2019-05-22T16:25:26.421Z,1.32
2019-05-22T16:27:55.996Z,1.20
2019-05-22T16:30:26.208Z,1.10
2019-05-22T16:32:56.209Z,1.00
2019-05-22T16:35:26.056Z,0.90
2019-05-22T16:37:56.650Z,0.90
2019-05-22T16:40:25.616Z,1.00
2019-05-22T16:42:55.380Z,0.85
2019-05-22T16:45:24.824Z,1.00
2019-05-22T16:47:55.418Z,1.00
2019-05-22T16:50:25.141Z,1.07
2019-05-22T16:52:54.456Z,1.00
2019-05-22T16:55:24.559Z,0.85
2019-05-22T16:57:54.336Z,0.90
2019-05-22T17:00:24.295Z,1.00
2019-05-22T17:02:52.761Z,1.10
2019-05-22T17:05:23.518Z,1.15
2019-05-22T17:07:52.724Z,1.30
2019-05-22T17:10:23.097Z,1.65
2019-05-22T17:12:52.995Z,1.40
2019-05-22T17:15:21.750Z,1.42
2019-05-22T17:17:50.454Z,1.37
2019-05-22T17:20:25.411Z,1.27
2019-05-22T17:22:54.507Z,1.30
2019-05-22T17:25:23.401Z,1.20
2019-05-22T17:27:51.909Z,1.32
2019-05-22T17:30:23.955Z,1.50
2019-05-22T17:32:53.210Z,1.22
2019-05-22T17:35:24.446Z,1.20
2019-05-22T17:37:53.152Z,1.30
2019-05-22T17:40:22.421Z,1.15
2019-05-22T17:42:53.342Z,1.20
2019-05-22T17:45:25.788Z,1.30
2019-05-22T17:47:55.421Z,1.15
2019-05-22T17:50:27.614Z,1.10
2019-05-22T17:52:57.084Z,1.15
2019-05-22T17:55:27.391Z,1.15
2019-05-22T17:57:56.393Z,1.00
2019-05-22T18:00:29.326Z,1.00
2019-05-22T18:02:59.193Z,1.10
2019-05-22T18:05:28.706Z,1.30
2019-05-22T18:07:57.436Z,1.37
2019-05-22T18:10:26.656Z,1.00
2019-05-22T18:12:55.170Z,1.37
2019-05-22T18:15:24.052Z,1.60
2019-05-22T18:17:52.885Z,1.70
2019-05-22T18:20:22.589Z,1.47
2019-05-22T18:22:51.580Z,1.77
2019-05-22T18:25:20.294Z,1.27
2019-05-22T18:27:50.952Z,1.92
2019-05-22T18:30:20.383Z,1.85
2019-05-22T18:32:49.180Z,1.80
2019-05-22T18:35:19.114Z,2.20
2019-05-22T18:37:48.114Z,1.85
2019-05-22T18:40:18.437Z,1.57
2019-05-22T18:42:47.540Z,1.45
2019-05-22T18:45:16.912Z,1.90
2019-05-22T18:47:45.903Z,2.12
2019-05-22T18:50:16.140Z,2.12
2019-05-22T18:52:47.815Z,2.10
2019-05-22T18:55:17.386Z,2.15
2019-05-22T18:57:46.498Z,1.77
2019-05-22T19:00:19.031Z,2.67
2019-05-22T19:02:47.555Z,2.02
2019-05-22T19:05:19.251Z,1.70
2019-05-22T19:07:48.406Z,1.85
2019-05-22T19:10:18.270Z,2.20
2019-05-22T19:12:47.332Z,2.10
2019-05-22T19:15:16.825Z,2.15
2019-05-22T19:17:45.351Z,2.20
2019-05-22T19:20:14.308Z,2.00
2019-05-22T19:22:58.535Z,1.90
2019-05-22T19:25:13.587Z,1.80
2019-05-22T19:27:42.446Z,2.00
2019-05-22T19:30:13.030Z,1.75
2019-05-22T19:32:41.624Z,1.80
2019-05-22T19:35:10.842Z,2.02
2019-05-22T19:37:39.287Z,1.92
2019-05-22T19:40:10.021Z,1.98
2019-05-22T19:42:39.352Z,2.05
2019-05-22T19:45:10.664Z,1.72
2019-05-22T19:47:42.914Z,1.82
2019-05-22T19:50:22.789Z,1.95
2019-05-22T19:52:43.439Z,2.30
2019-05-22T19:55:14.110Z,2.67
2019-05-22T19:57:43.333Z,2.52
2019-05-22T20:00:12.497Z,2.60
2019-05-22T20:02:42.269Z,2.90
2019-05-22T20:05:11.286Z,3.00
2019-05-22T20:07:41.022Z,3.20
2019-05-22T20:10:11.288Z,3.25
2019-05-22T20:12:40.399Z,3.80
2019-05-22T20:15:11.216Z,4.10
2019-05-22T20:17:40.004Z,4.08
2019-05-22T20:20:10.277Z,4.80
2019-05-22T20:22:42.240Z,4.97
2019-05-22T20:25:12.598Z,5.20
2019-05-22T20:27:41.690Z,5.45
2019-05-22T20:30:12.175Z,5.00
2019-05-22T20:32:41.089Z,4.20
2019-05-22T20:35:10.346Z,4.05
2019-05-22T20:37:40.134Z,4.50
2019-05-22T20:40:09.764Z,4.50
2019-05-22T20:42:39.488Z,4.50
2019-05-22T20:45:09.249Z,5.28
2019-05-22T20:47:39.974Z,4.80
2019-05-22T20:50:10.343Z,4.65
2019-05-22T20:52:40.005Z,4.70
2019-05-22T20:55:09.644Z,4.85
2019-05-22T20:57:38.403Z,4.33
2019-05-22T21:00:09.054Z,5.10
2019-05-22T21:02:40.208Z,5.33
2019-05-22T21:05:10.985Z,5.35
2019-05-22T21:07:48.892Z,5.58
2019-05-22T21:10:17.836Z,5.72
2019-05-22T21:12:46.648Z,5.95
2019-05-22T21:15:16.015Z,5.75
2019-05-22T21:17:45.128Z,5.03
2019-05-22T21:20:15.636Z,5.30
2019-05-22T21:22:45.931Z,5.35
2019-05-22T21:25:14.872Z,5.08
2019-05-22T21:27:43.479Z,3.90
2019-05-22T21:30:14.851Z,4.47
2019-05-22T21:32:44.154Z,4.80
2019-05-22T21:35:13.977Z,4.60
2019-05-22T21:37:42.572Z,4.03
2019-05-22T21:40:12.146Z,5.12
2019-05-22T21:42:41.855Z,4.80
2019-05-22T21:45:11.058Z,4.92
2019-05-22T21:47:41.568Z,4.67
2019-05-22T21:50:12.062Z,4.75
2019-05-22T21:52:41.324Z,4.28
2019-05-22T21:55:13.128Z,4.03
2019-05-22T21:57:42.437Z,3.60
2019-05-22T22:00:18.530Z,3.25
2019-05-22T22:02:48.992Z,3.50
2019-05-22T22:05:19.282Z,3.30
2019-05-22T22:07:48.341Z,3.50
2019-05-22T22:10:17.962Z,2.75
2019-05-22T22:12:47.926Z,3.20
2019-05-22T22:15:17.068Z,3.10
2019-05-22T22:17:47.064Z,3.15
2019-05-22T22:20:17.429Z,3.30
2019-05-22T22:22:45.927Z,3.30
2019-05-22T22:25:15.197Z,3.50
2019-05-22T22:27:44.264Z,3.40
2019-05-22T22:30:33.082Z,3.50
2019-05-22T22:33:05.373Z,3.65
2019-05-22T22:35:33.971Z,4.00
2019-05-22T22:38:03.338Z,3.67
2019-05-22T22:40:31.982Z,3.83
2019-05-22T22:43:03.579Z,3.87
2019-05-22T22:45:41.665Z,3.85
2019-05-22T22:48:12.500Z,3.70
2019-05-22T22:50:41.026Z,4.08
2019-05-22T22:53:10.287Z,4.50
2019-05-22T22:55:40.096Z,4.00
2019-05-22T22:58:17.096Z,4.30
2019-05-22T23:00:45.799Z,4.17
2019-05-22T23:03:20.273Z,3.98
2019-05-22T23:05:49.336Z,3.45
2019-05-22T23:08:23.922Z,3.60
2019-05-22T23:10:53.404Z,3.77
2019-05-22T23:13:23.574Z,3.92
2019-05-22T23:15:54.037Z,3.52
2019-05-22T23:18:45.321Z,3.77
2019-05-22T23:21:17.014Z,3.65
2019-05-22T23:23:46.121Z,3.50
2019-05-22T23:26:16.273Z,3.77
2019-05-22T23:28:45.045Z,3.92
2019-05-22T23:31:14.229Z,3.90
2019-05-22T23:33:42.972Z,4.47
2019-05-22T23:36:13.589Z,4.08
2019-05-22T23:38:42.201Z,4.35
2019-05-22T23:41:12.576Z,3.87
2019-05-22T23:43:43.012Z,3.60
2019-05-22T23:46:13.407Z,3.72
2019-05-22T23:48:43.905Z,3.75
2019-05-22T23:51:12.925Z,3.90
2019-05-22T23:53:42.753Z,3.70
2019-05-22T23:56:11.826Z,3.27
2019-05-22T23:58:52.224Z,4.03
